Time;durP1;ratioP1;P1;durP2;ratioP2;P2;SDS_P1;SDS_P2;PMS_P1;PMS_P2;Temp;Humidity;BMP_temperature;BMP_pressure;BME280_temperature;BME280_humidity;BME280_pressure;Samples;Min_cycle;Max_cycle;Signal;HPM_P1;HPM_P2
2023/06/15 00:00:56;;;;;;;0.60;0.50;;;;;;;17.34;65.10;100264.19;5032624;28;20881;-49
2023/06/15 00:03:23;;;;;;;0.50;0.20;;;;;;;17.93;63.20;100260.75;5032205;28;20463;-48
2023/06/15 00:05:51;;;;;;;0.40;0.20;;;;;;;18.03;62.10;100261.94;5032686;28;20950;-49
2023/06/15 00:08:21;;;;;;;0.50;0.20;;;;;;;18.06;62.33;100260.88;5032379;28;20456;-49
2023/06/15 00:10:48;;;;;;;0.50;0.20;;;;;;;18.32;61.06;100260.16;5032741;28;20459;-49
2023/06/15 00:13:15;;;;;;;0.50;0.20;;;;;;;17.76;63.84;100264.44;5032572;28;20463;-49
2023/06/15 00:15:42;;;;;;;0.47;0.20;;;;;;;17.78;63.71;100258.97;5032025;28;20518;-49
2023/06/15 00:18:09;;;;;;;0.40;0.20;;;;;;;17.25;66.21;100257.50;5032519;28;20513;-49
2023/06/15 00:20:35;;;;;;;0.50;0.20;;;;;;;17.53;65.34;100267.56;5032056;28;20468;-49
2023/06/15 00:23:03;;;;;;;0.50;0.20;;;;;;;17.50;65.66;100266.88;5032297;28;20565;-48
2023/06/15 00:25:32;;;;;;;0.50;0.20;;;;;;;17.46;66.34;100268.88;5032388;28;20516;-49
2023/06/15 00:27:58;;;;;;;0.50;0.20;;;;;;;17.60;64.97;100271.63;5032438;28;20459;-49
2023/06/15 00:30:25;;;;;;;0.40;0.20;;;;;;;17.43;66.08;100269.91;5032099;28;20495;-50
2023/06/15 00:32:51;;;;;;;0.47;0.20;;;;;;;17.02;68.31;100276.75;5032214;28;20518;-49
2023/06/15 00:35:18;;;;;;;0.47;0.20;;;;;;;17.17;67.74;100275.91;5031954;28;20498;-49
2023/06/15 00:37:45;;;;;;;0.40;0.20;;;;;;;17.14;67.90;100276.06;5032004;28;20500;-49
2023/06/15 00:40:12;;;;;;;0.40;0.20;;;;;;;17.00;68.69;100281.34;5031820;28;20469;-50
2023/06/15 00:42:38;;;;;;;0.50;0.20;;;;;;;16.74;69.54;100286.31;5032057;28;20521;-48
2023/06/15 00:45:06;;;;;;;0.50;0.20;;;;;;;16.91;69.20;100281.84;5032527;28;20519;-49
2023/06/15 00:47:38;;;;;;;0.40;0.20;;;;;;;16.71;70.49;100288.28;5031527;28;20467;-48
2023/06/15 00:50:10;;;;;;;0.50;0.20;;;;;;;16.43;71.15;100284.34;5032094;28;20470;-49
2023/06/15 00:52:38;;;;;;;0.40;0.20;;;;;;;16.30;72.16;100289.50;5032001;28;20499;-49
2023/06/15 00:55:05;;;;;;;0.40;0.20;;;;;;;15.93;73.22;100287.00;5031865;28;20925;-49
2023/06/15 00:57:32;;;;;;;0.50;0.20;;;;;;;15.81;73.74;100282.25;5031902;28;20495;-49
2023/06/15 00:59:59;;;;;;;0.50;0.20;;;;;;;15.85;74.05;100290.03;5032175;28;20501;-49
2023/06/15 01:02:27;;;;;;;0.50;0.20;;;;;;;15.67;74.77;100296.34;5031539;28;20463;-49
2023/06/15 01:04:53;;;;;;;0.50;0.20;;;;;;;15.77;74.79;100294.06;5031754;28;20522;-49
2023/06/15 01:07:20;;;;;;;0.40;0.20;;;;;;;15.58;75.81;100292.25;5031975;28;20464;-49
2023/06/15 01:09:48;;;;;;;0.43;0.20;;;;;;;15.58;76.22;100288.69;5014152;28;20470;-49
2023/06/15 01:12:17;;;;;;;0.50;0.20;;;;;;;15.54;75.73;100293.34;5031742;28;20467;-49
2023/06/15 01:14:44;;;;;;;0.50;0.20;;;;;;;15.33;76.86;100286.34;5031614;28;20578;-49
2023/06/15 01:17:23;;;;;;;0.43;0.20;;;;;;;15.47;76.65;100291.03;5031530;28;20486;-49
2023/06/15 01:20:07;;;;;;;0.50;0.20;;;;;;;15.05;78.12;100295.69;5032005;28;20459;-49
2023/06/15 01:23:01;;;;;;;0.50;0.20;;;;;;;14.76;79.74;100291.69;5031540;28;20971;-48
2023/06/15 01:25:53;;;;;;;0.40;0.20;;;;;;;15.13;78.26;100297.16;5026021;28;20495;-48
2023/06/15 01:28:20;;;;;;;0.50;0.30;;;;;;;15.01;79.16;100299.47;5031930;28;20459;-49
2023/06/15 01:30:53;;;;;;;0.40;0.20;;;;;;;14.92;78.81;100297.19;5035418;28;21006;-49
2023/06/15 01:33:22;;;;;;;0.47;0.20;;;;;;;14.76;79.82;100301.53;5017636;28;20924;-49
2023/06/15 01:35:48;;;;;;;0.40;0.20;;;;;;;14.79;80.00;100301.38;5035279;28;20922;-49
2023/06/15 01:38:23;;;;;;;1.00;1.00;;;;;;;14.64;80.89;100310.09;5035281;28;20491;-49
2023/06/15 01:40:51;;;;;;;0.50;0.20;;;;;;;14.72;81.22;100300.81;5035515;28;20460;-49
2023/06/15 01:43:24;;;;;;;0.50;0.20;;;;;;;14.77;80.50;100296.09;5035168;28;20999;-48
2023/06/15 01:45:52;;;;;;;0.40;0.20;;;;;;;14.69;81.06;100295.59;5035011;28;20896;-48
2023/06/15 01:48:20;;;;;;;0.40;0.20;;;;;;;14.80;80.80;100295.09;5034987;28;20490;-49
2023/06/15 01:50:48;;;;;;;0.40;0.20;;;;;;;14.54;81.34;100298.09;5035143;28;20485;-49
2023/06/15 01:53:15;;;;;;;0.50;0.20;;;;;;;14.74;81.06;100300.72;5035019;28;20463;-51
2023/06/15 01:55:42;;;;;;;0.40;0.20;;;;;;;14.72;80.77;100302.63;5035007;28;20483;-49
2023/06/15 01:58:08;;;;;;;0.40;0.20;;;;;;;14.63;81.14;100298.53;5034898;28;20498;-49
2023/06/15 02:00:34;;;;;;;0.40;0.20;;;;;;;14.62;81.41;100310.19;5034828;28;20964;-49
2023/06/15 02:03:01;;;;;;;0.40;0.20;;;;;;;14.47;82.00;100302.84;5034430;28;20464;-49
2023/06/15 02:05:28;;;;;;;0.40;0.20;;;;;;;14.42;82.49;100299.47;5034959;28;20483;-49
2023/06/15 02:07:55;;;;;;;0.40;0.20;;;;;;;14.31;82.71;100305.28;5034910;28;20463;-49
2023/06/15 02:10:23;;;;;;;0.40;0.20;;;;;;;13.98;84.51;100304.94;5034784;28;20499;-51
2023/06/15 02:12:49;;;;;;;0.50;0.20;;;;;;;14.20;83.99;100310.22;5034812;28;20472;-49
2023/06/15 02:15:16;;;;;;;0.40;0.20;;;;;;;14.08;83.61;100305.41;5034355;28;20490;-49
2023/06/15 02:17:43;;;;;;;0.40;0.20;;;;;;;14.08;84.38;100308.06;5034458;28;20499;-48
2023/06/15 02:20:11;;;;;;;0.40;0.20;;;;;;;13.83;84.56;100300.22;5034756;28;20499;-49
2023/06/15 02:22:38;;;;;;;0.40;0.20;;;;;;;13.85;85.48;100304.59;5034646;28;20467;-49
2023/06/15 02:25:07;;;;;;;0.40;0.20;;;;;;;13.89;85.08;100295.50;5034432;28;21004;-49
2023/06/15 02:27:34;;;;;;;0.50;0.20;;;;;;;13.92;85.38;100298.03;5034272;28;21025;-49
2023/06/15 02:30:01;;;;;;;0.40;0.20;;;;;;;13.97;84.58;100299.63;5034501;28;21035;-49
2023/06/15 02:32:36;;;;;;;0.40;0.20;;;;;;;14.07;84.54;100296.50;5034135;28;20834;-48
2023/06/15 02:35:05;;;;;;;0.40;0.20;;;;;;;14.20;84.05;100292.38;5034354;28;20984;-48
2023/06/15 02:37:32;;;;;;;0.40;0.20;;;;;;;14.21;84.22;100306.63;5034026;28;20479;-48
2023/06/15 02:39:58;;;;;;;0.40;0.20;;;;;;;14.27;84.06;100301.03;5033667;28;20463;-49
2023/06/15 02:42:25;;;;;;;0.40;0.20;;;;;;;13.99;84.20;100305.81;5033943;28;21026;-49
2023/06/15 02:44:51;;;;;;;0.40;0.20;;;;;;;14.03;84.87;100304.75;5033917;28;20880;-49
2023/06/15 02:47:18;;;;;;;0.40;0.20;;;;;;;13.96;85.01;100306.78;5034269;28;20478;-49
2023/06/15 02:49:44;;;;;;;0.40;0.20;;;;;;;13.77;85.67;100308.50;5034221;28;20463;-49
2023/06/15 02:52:11;;;;;;;0.40;0.20;;;;;;;13.88;85.25;100306.25;5034123;28;20460;-49
2023/06/15 02:54:37;;;;;;;0.40;0.20;;;;;;;13.84;85.96;100310.88;5026496;28;20855;-48
2023/06/15 02:57:06;;;;;;;0.40;0.20;;;;;;;13.75;85.97;100313.91;5033816;28;20833;-49
2023/06/15 02:59:34;;;;;;;0.40;0.20;;;;;;;13.58;86.79;100308.41;5033586;28;20530;-49
2023/06/15 03:02:01;;;;;;;0.80;0.80;;;;;;;13.30;87.64;100313.97;5033477;28;20498;-49
2023/06/15 03:04:28;;;;;;;0.40;0.20;;;;;;;13.50;87.61;100308.69;5033530;28;20864;-48
2023/06/15 03:06:56;;;;;;;0.40;0.20;;;;;;;13.53;87.40;100319.25;5033695;28;20471;-48
2023/06/15 03:09:23;;;;;;;0.40;0.20;;;;;;;13.33;88.11;100320.06;5033403;28;20546;-48
2023/06/15 03:11:53;;;;;;;0.40;0.20;;;;;;;13.49;87.30;100314.97;5027322;28;20494;-49
2023/06/15 03:14:19;;;;;;;0.40;0.20;;;;;;;13.12;88.30;100323.50;5033534;28;20526;-48
2023/06/15 03:16:47;;;;;;;0.40;0.20;;;;;;;13.22;88.04;100332.94;5033691;28;20607;-48
2023/06/15 03:19:17;;;;;;;0.40;0.20;;;;;;;12.99;89.19;100320.44;5033434;28;21026;-48
2023/06/15 03:21:47;;;;;;;0.40;0.20;;;;;;;13.04;89.44;100323.81;5033394;28;20463;-48
2023/06/15 03:24:13;;;;;;;0.40;0.20;;;;;;;13.02;89.44;100332.81;5032694;28;20488;-48
2023/06/15 03:26:47;;;;;;;0.40;0.20;;;;;;;12.94;89.87;100326.88;5033594;28;20463;-47
2023/06/15 03:29:14;;;;;;;0.40;0.20;;;;;;;13.06;89.24;100321.09;5033435;28;20513;-48
2023/06/15 03:31:41;;;;;;;0.40;0.20;;;;;;;12.98;90.10;100331.19;5033274;28;20525;-48
2023/06/15 03:34:08;;;;;;;0.40;0.20;;;;;;;13.00;90.15;100331.97;5033185;28;20464;-50
2023/06/15 03:36:35;;;;;;;0.40;0.20;;;;;;;12.85;90.99;100332.56;5033116;28;20478;-48
2023/06/15 03:39:03;;;;;;;0.40;0.20;;;;;;;13.08;89.72;100329.03;5032913;28;20503;-47
2023/06/15 03:41:33;;;;;;;0.40;0.40;;;;;;;13.09;89.63;100328.97;5033180;28;20495;-48
2023/06/15 03:44:00;;;;;;;0.40;0.20;;;;;;;13.42;88.61;100326.81;5033031;28;20474;-48
2023/06/15 03:46:26;;;;;;;0.40;0.20;;;;;;;13.49;88.21;100332.78;5032898;28;20558;-48
2023/06/15 03:48:53;;;;;;;0.40;0.20;;;;;;;13.48;88.93;100336.41;5033001;28;20956;-48
2023/06/15 03:51:19;;;;;;;0.40;0.20;;;;;;;13.39;88.45;100340.28;5031871;28;20988;-49
2023/06/15 03:53:46;;;;;;;0.40;0.20;;;;;;;13.39;88.68;100340.28;5032912;28;20475;-48
2023/06/15 03:56:12;;;;;;;0.40;0.20;;;;;;;13.30;89.04;100341.53;5032627;28;20494;-48
2023/06/15 03:58:39;;;;;;;0.40;0.20;;;;;;;13.18;90.83;100342.00;5032566;28;20830;-48
2023/06/15 04:01:05;;;;;;;0.40;0.20;;;;;;;13.18;90.02;100342.00;5032766;28;20499;-48
2023/06/15 04:03:36;;;;;;;0.40;0.20;;;;;;;13.30;89.86;100346.00;5032191;28;20495;-48
2023/06/15 04:06:04;;;;;;;0.40;0.20;;;;;;;13.34;90.48;100342.28;5032389;28;20479;-48
2023/06/15 04:08:37;;;;;;;0.40;0.20;;;;;;;13.36;90.60;100340.41;5032500;28;20468;-47
2023/06/15 04:11:04;;;;;;;0.40;0.20;;;;;;;13.45;90.11;100337.41;5032554;28;20491;-49
2023/06/15 04:13:30;;;;;;;0.40;0.20;;;;;;;13.58;89.62;100345.78;5032389;28;20479;-48
2023/06/15 04:15:57;;;;;;;0.40;0.20;;;;;;;13.64;90.30;100346.41;5032318;28;20533;-49
2023/06/15 04:18:24;;;;;;;0.40;0.20;;;;;;;13.99;87.77;100353.94;5031944;28;20495;-47
2023/06/15 04:20:51;;;;;;;0.40;0.20;;;;;;;13.88;89.32;100349.88;5032371;28;20463;-48
2023/06/15 04:23:17;;;;;;;0.40;0.20;;;;;;;13.79;89.58;100347.56;5032280;28;20464;-48
2023/06/15 04:25:45;;;;;;;0.40;0.20;;;;;;;13.74;90.27;100349.56;5032238;28;20578;-48
2023/06/15 04:28:11;;;;;;;0.40;0.20;;;;;;;14.26;88.92;100351.91;5032211;28;20472;-50
2023/06/15 04:30:44;;;;;;;0.40;0.20;;;;;;;15.02;85.61;100346.69;5026530;28;20558;-48
2023/06/15 04:33:13;;;;;;;0.40;0.20;;;;;;;15.78;81.53;100349.41;5032045;28;20937;-49
2023/06/15 04:35:45;;;;;;;0.40;0.20;;;;;;;16.36;78.56;100350.03;5035740;28;21010;-49
2023/06/15 04:38:13;;;;;;;0.40;0.20;;;;;;;17.17;74.90;100359.19;5032436;28;20550;-49
2023/06/15 04:40:45;;;;;;;0.40;0.20;;;;;;;17.54;72.82;100362.50;5032467;28;20827;-49
2023/06/15 04:43:12;;;;;;;0.40;0.20;;;;;;;17.69;71.37;100359.00;5043092;28;20455;-49
2023/06/15 04:45:38;;;;;;;0.40;0.20;;;;;;;18.04;70.67;100368.56;5039798;28;21016;-49
2023/06/15 04:48:05;;;;;;;0.40;0.20;;;;;;;18.40;69.44;100364.69;5032717;28;20495;-49
2023/06/15 04:50:32;;;;;;;0.40;0.20;;;;;;;18.68;67.99;100379.22;5032381;28;20499;-50
2023/06/15 04:52:59;;;;;;;0.40;0.20;;;;;;;19.00;65.84;100385.31;5035879;28;20479;-49
2023/06/15 04:55:25;;;;;;;0.40;0.20;;;;;;;19.32;64.57;100377.91;5031853;28;21039;-50
2023/06/15 04:57:52;;;;;;;0.50;0.20;;;;;;;19.82;63.20;100377.38;5031890;28;20459;-49
2023/06/15 05:00:19;;;;;;;0.50;0.20;;;;;;;19.83;62.35;100379.09;5031661;28;20526;-50
2023/06/15 05:02:45;;;;;;;0.50;0.20;;;;;;;20.02;61.75;100378.78;5034100;28;20467;-49
2023/06/15 05:05:12;;;;;;;0.50;0.20;;;;;;;19.92;61.98;100381.22;5041253;28;20977;-49
2023/06/15 05:07:39;;;;;;;0.47;0.20;;;;;;;19.93;61.91;100382.06;5036334;28;20463;-52
2023/06/15 05:10:07;;;;;;;0.50;0.20;;;;;;;19.88;62.35;100385.09;5035862;28;20558;-49
2023/06/15 05:12:33;;;;;;;0.50;0.20;;;;;;;20.07;62.61;100385.59;5035618;28;20554;-49
2023/06/15 05:15:00;;;;;;;0.50;0.20;;;;;;;20.49;60.38;100380.13;5035907;28;20486;-49
2023/06/15 05:17:26;;;;;;;0.50;0.20;;;;;;;20.31;60.76;100387.63;5027771;28;20456;-50
2023/06/15 05:19:53;;;;;;;0.47;0.20;;;;;;;20.22;61.28;100378.31;5036054;28;20491;-49
2023/06/15 05:22:19;;;;;;;0.40;0.20;;;;;;;19.76;63.61;100373.25;5035767;28;20472;-50
2023/06/15 05:24:46;;;;;;;0.50;0.20;;;;;;;20.38;62.35;100380.84;5046858;28;20548;-49
2023/06/15 05:27:12;;;;;;;0.50;0.20;;;;;;;20.90;60.52;100379.97;5038389;28;20494;-50
2023/06/15 05:29:39;;;;;;;0.40;0.20;;;;;;;20.87;60.30;100377.50;5035742;28;20459;-50
2023/06/15 05:32:07;;;;;;;0.50;0.20;;;;;;;21.19;58.53;100388.75;5035872;28;20906;-50
2023/06/15 05:34:34;;;;;;;0.40;0.20;;;;;;;21.50;57.22;100391.00;5034632;28;20582;-49
2023/06/15 05:37:00;;;;;;;0.50;0.20;;;;;;;21.51;56.80;100387.31;5043909;28;20464;-49
2023/06/15 05:39:26;;;;;;;0.50;0.20;;;;;;;21.73;56.84;100389.34;5033679;28;20487;-49
2023/06/15 05:41:53;;;;;;;0.47;0.20;;;;;;;21.82;56.89;100390.50;5035082;28;20521;-49
2023/06/15 05:44:20;;;;;;;0.50;0.20;;;;;;;21.78;57.09;100386.28;5041066;28;20490;-50
2023/06/15 05:46:47;;;;;;;0.50;0.20;;;;;;;21.97;57.09;100394.78;5035725;28;20807;-49
2023/06/15 05:49:13;;;;;;;0.40;0.20;;;;;;;21.86;57.49;100392.88;5035478;28;20558;-49
2023/06/15 05:51:39;;;;;;;0.50;0.20;;;;;;;22.03;56.52;100386.19;5035173;28;20884;-49
2023/06/15 05:54:06;;;;;;;0.50;0.20;;;;;;;22.46;55.24;100391.97;5035140;28;20510;-49
2023/06/15 05:56:33;;;;;;;0.50;0.30;;;;;;;22.21;55.19;100388.56;5036194;28;20469;-50
2023/06/15 05:58:59;;;;;;;0.43;0.20;;;;;;;22.31;55.74;100403.09;5036446;28;20847;-50
2023/06/15 06:01:26;;;;;;;0.50;0.30;;;;;;;22.15;55.82;100397.97;5034562;28;21109;-49
2023/06/15 06:03:52;;;;;;;0.50;0.20;;;;;;;22.25;55.58;100401.75;5034530;28;20463;-49
2023/06/15 06:06:19;;;;;;;0.50;0.20;;;;;;;22.64;54.64;100405.97;5034719;28;21015;-50
2023/06/15 06:08:46;;;;;;;0.50;0.20;;;;;;;22.80;55.05;100407.50;5029893;28;20463;-49
2023/06/15 06:11:13;;;;;;;0.50;0.30;;;;;;;23.18;53.88;100402.69;5034404;28;20888;-50
2023/06/15 06:13:39;;;;;;;0.50;0.20;;;;;;;23.26;53.10;100400.19;5030598;28;20522;-49
2023/06/15 06:16:06;;;;;;;0.50;0.20;;;;;;;23.14;53.79;100403.88;5034439;28;20488;-50
2023/06/15 06:18:32;;;;;;;0.50;0.20;;;;;;;23.20;54.19;100405.28;5034491;28;20550;-49
2023/06/15 06:20:59;;;;;;;0.50;0.20;;;;;;;22.47;54.81;100400.97;5034627;28;20546;-49
2023/06/15 06:23:26;;;;;;;0.50;0.20;;;;;;;23.19;54.52;100406.25;5033947;28;20471;-49
2023/06/15 06:25:52;;;;;;;0.50;0.20;;;;;;;23.42;53.43;100407.97;5034345;28;20875;-49
2023/06/15 06:28:19;;;;;;;0.50;0.20;;;;;;;23.55;53.36;100399.72;5034409;28;20467;-49
2023/06/15 06:30:45;;;;;;;0.50;0.20;;;;;;;23.12;54.04;100407.72;5035744;28;21171;-50
2023/06/15 06:33:12;;;;;;;0.50;0.20;;;;;;;23.42;54.21;100416.13;5026542;28;20474;-49
2023/06/15 06:35:38;;;;;;;1.23;1.23;;;;;;;23.67;53.83;100406.03;5034110;28;20855;-49
2023/06/15 06:38:05;;;;;;;0.50;0.20;;;;;;;24.02;52.58;100406.75;5034040;28;20911;-49
2023/06/15 06:40:31;;;;;;;0.40;0.20;;;;;;;24.04;51.31;100406.59;5041153;28;20553;-49
2023/06/15 06:42:58;;;;;;;0.50;0.23;;;;;;;23.58;49.76;100418.53;5034172;28;20467;-49
2023/06/15 06:45:24;;;;;;;0.50;0.20;;;;;;;23.74;49.42;100410.00;5034348;28;20499;-48
2023/06/15 06:47:55;;;;;;;1.43;1.43;;;;;;;23.02;50.78;100410.28;5034184;28;20469;-48
2023/06/15 06:50:22;;;;;;;0.50;0.30;;;;;;;22.97;50.67;100409.78;5033813;28;20491;-49
2023/06/15 06:52:48;;;;;;;0.50;0.20;;;;;;;23.12;51.08;100399.56;5034044;28;20494;-48
2023/06/15 06:55:15;;;;;;;0.50;0.20;;;;;;;22.52;52.35;100404.19;5033936;28;20549;-48
2023/06/15 06:57:42;;;;;;;0.50;0.20;;;;;;;23.28;50.64;100406.38;5033916;28;20471;-48
2023/06/15 07:00:10;;;;;;;0.50;0.20;;;;;;;23.49;49.47;100408.38;5033681;28;20549;-49
2023/06/15 07:02:36;;;;;;;0.50;0.20;;;;;;;22.96;50.50;100408.91;5033506;28;20467;-49
2023/06/15 07:05:03;;;;;;;0.50;0.20;;;;;;;22.96;49.57;100410.78;5033289;28;20487;-49
2023/06/15 07:07:30;;;;;;;0.50;0.20;;;;;;;22.70;50.84;100410.91;5033815;28;20472;-48
2023/06/15 07:09:56;;;;;;;0.50;0.20;;;;;;;22.55;51.16;100409.38;5033700;28;20495;-48
2023/06/15 07:12:23;;;;;;;0.50;0.30;;;;;;;22.67;50.34;100407.56;5033690;28;20526;-49
2023/06/15 07:14:50;;;;;;;0.43;0.20;;;;;;;22.98;50.51;100414.22;5033525;28;20561;-48
2023/06/15 07:17:16;;;;;;;0.50;0.20;;;;;;;22.63;50.33;100401.53;5033800;28;20525;-49
2023/06/15 07:19:42;;;;;;;0.50;0.20;;;;;;;22.95;49.80;100406.34;5033168;28;20524;-49
2023/06/15 07:22:09;;;;;;;0.50;0.20;;;;;;;23.15;49.23;100400.19;5033593;28;20490;-49
2023/06/15 07:24:36;;;;;;;0.50;0.20;;;;;;;23.45;49.10;100405.03;5032597;28;20858;-49
2023/06/15 07:27:03;;;;;;;0.50;0.20;;;;;;;22.95;50.01;100409.03;5026375;28;21039;-48
2023/06/15 07:29:29;;;;;;;0.50;0.20;;;;;;;23.29;49.47;100413.53;5032882;28;20534;-49
2023/06/15 07:31:56;;;;;;;0.50;0.20;;;;;;;23.28;48.42;100408.22;5033091;28;20468;-48
2023/06/15 07:34:24;;;;;;;0.50;0.20;;;;;;;23.24;47.89;100406.75;5032712;28;20518;-49
2023/06/15 07:36:50;;;;;;;0.50;0.20;;;;;;;23.28;48.17;100405.50;5033189;28;20542;-48
2023/06/15 07:39:17;;;;;;;0.50;0.20;;;;;;;23.30;48.70;100409.84;5033103;28;20491;-49
2023/06/15 07:41:44;;;;;;;0.50;0.20;;;;;;;23.71;48.47;100402.06;5034202;28;20463;-50
2023/06/15 07:44:12;;;;;;;0.50;0.20;;;;;;;23.75;46.08;100406.28;5034983;28;20573;-50
2023/06/15 07:46:39;;;;;;;0.50;0.20;;;;;;;23.57;46.18;100416.72;5034052;28;20517;-50
2023/06/15 07:49:07;;;;;;;0.50;0.30;;;;;;;23.61;46.20;100413.69;5033053;28;20550;-49
2023/06/15 07:51:34;;;;;;;0.50;0.20;;;;;;;23.49;47.43;100414.66;5033073;28;20464;-49
2023/06/15 07:54:13;;;;;;;0.50;0.20;;;;;;;23.56;47.21;100409.59;5028415;28;20572;-49
2023/06/15 07:56:39;;;;;;;0.50;0.20;;;;;;;23.84;47.59;100408.22;5032718;28;20517;-48
2023/06/15 07:59:06;;;;;;;0.50;0.20;;;;;;;23.86;44.68;100409.00;5032790;28;20586;-49
2023/06/15 08:01:32;;;;;;;0.50;0.20;;;;;;;24.07;46.59;100411.78;5032695;28;20471;-49
2023/06/15 08:04:00;;;;;;;0.50;0.20;;;;;;;23.74;46.12;100410.00;5032011;28;20991;-48
2023/06/15 08:06:26;;;;;;;0.40;0.20;;;;;;;23.60;46.78;100411.13;5032718;28;20503;-48
2023/06/15 08:08:53;;;;;;;0.50;0.20;;;;;;;23.86;44.85;100411.72;5032835;28;20518;-49
2023/06/15 08:11:19;;;;;;;0.50;0.20;;;;;;;24.07;44.70;100409.91;5032332;28;20502;-49
2023/06/15 08:13:46;;;;;;;0.50;0.20;;;;;;;24.13;45.84;100409.44;5032632;28;20529;-49
2023/06/15 08:16:12;;;;;;;0.50;0.20;;;;;;;24.34;44.98;100405.94;5032186;28;20916;-49
2023/06/15 08:18:39;;;;;;;0.40;0.20;;;;;;;24.17;44.41;100407.31;5032532;28;20502;-48
2023/06/15 08:21:05;;;;;;;0.50;0.30;;;;;;;24.17;45.50;100397.31;5032235;28;20492;-48
2023/06/15 08:23:32;;;;;;;0.50;0.20;;;;;;;24.31;44.18;100412.50;5032407;28;20467;-50
2023/06/15 08:25:58;;;;;;;0.50;0.23;;;;;;;24.18;44.75;100414.47;5032109;28;20495;-49
2023/06/15 08:28:25;;;;;;;0.50;0.20;;;;;;;24.13;45.75;100412.16;5032210;28;20464;-49
2023/06/15 08:30:51;;;;;;;0.50;0.20;;;;;;;24.07;45.02;100411.78;5032490;28;20521;-49
2023/06/15 08:33:18;;;;;;;0.70;0.70;;;;;;;24.37;43.51;100411.97;5032259;28;20467;-48
2023/06/15 08:35:45;;;;;;;0.40;0.20;;;;;;;24.07;43.98;100409.06;5032095;28;20899;-48
2023/06/15 08:38:11;;;;;;;0.50;0.20;;;;;;;23.92;44.65;100411.19;5031594;28;20494;-49
2023/06/15 08:40:38;;;;;;;0.50;0.20;;;;;;;24.23;44.32;100407.66;5031946;28;20863;-48
2023/06/15 08:43:06;;;;;;;0.50;0.20;;;;;;;24.09;45.01;100412.50;5031859;28;20464;-48
2023/06/15 08:45:39;;;;;;;1.50;1.50;;;;;;;24.14;44.05;100407.56;5031875;28;20613;-49
2023/06/15 08:48:07;;;;;;;0.50;0.20;;;;;;;24.40;44.59;100400.84;5031868;28;20467;-49
2023/06/15 08:50:37;;;;;;;0.50;0.20;;;;;;;24.16;44.50;100406.44;5032093;28;20485;-49
2023/06/15 08:53:05;;;;;;;0.43;0.20;;;;;;;24.27;44.18;100405.56;5032036;28;20594;-49
2023/06/15 08:55:33;;;;;;;0.50;0.20;;;;;;;24.10;44.53;100406.94;5031744;28;20484;-49
2023/06/15 08:57:59;;;;;;;0.50;0.20;;;;;;;24.18;44.72;100398.16;5031873;28;20464;-48
2023/06/15 09:00:26;;;;;;;0.50;0.50;;;;;;;24.34;44.37;100408.66;5024526;28;20587;-48
2023/06/15 09:02:59;;;;;;;0.47;0.20;;;;;;;24.12;44.29;100407.72;5031849;28;20460;-49
2023/06/15 09:05:26;;;;;;;0.50;0.20;;;;;;;24.84;44.28;100398.03;5031899;28;20513;-48
2023/06/15 09:07:53;;;;;;;0.50;0.20;;;;;;;25.18;42.40;100401.44;5031718;28;20961;-49
2023/06/15 09:10:21;;;;;;;0.50;0.30;;;;;;;25.10;42.88;100404.84;5032013;28;20455;-48
2023/06/15 09:12:51;;;;;;;0.50;0.20;;;;;;;24.32;43.35;100397.03;5031691;28;20467;-47
2023/06/15 09:15:20;;;;;;;0.50;0.20;;;;;;;24.52;42.94;100393.50;5031390;28;21048;-47
2023/06/15 09:17:51;;;;;;;0.50;0.20;;;;;;;24.44;43.27;100401.44;5031829;28;20513;-48
2023/06/15 09:20:19;;;;;;;0.50;0.20;;;;;;;24.61;41.70;100391.84;5031669;28;20495;-48
2023/06/15 09:22:47;;;;;;;0.50;0.20;;;;;;;24.94;41.85;100394.38;5031521;28;20968;-47
2023/06/15 09:25:20;;;;;;;0.50;0.20;;;;;;;25.58;40.67;100396.91;5031272;28;20479;-48
2023/06/15 09:27:57;;;;;;;0.50;0.40;;;;;;;24.76;41.91;100396.84;5031432;28;20494;-48
2023/06/15 09:30:37;;;;;;;0.50;0.30;;;;;;;25.18;41.29;100398.69;5031746;28;20546;-47
2023/06/15 09:33:13;;;;;;;0.50;0.30;;;;;;;25.22;39.59;100392.00;5029056;28;20467;-48
2023/06/15 09:36:02;;;;;;;0.50;0.20;;;;;;;25.25;39.21;100395.31;5031577;28;20545;-47
2023/06/15 09:38:31;;;;;;;0.50;0.23;;;;;;;25.12;38.97;100399.25;5031668;28;20467;-48
2023/06/15 09:41:03;;;;;;;0.50;0.30;;;;;;;24.91;40.17;100394.63;5028163;28;20518;-48
2023/06/15 09:43:36;;;;;;;0.50;0.20;;;;;;;25.30;38.86;100389.47;5013677;28;20898;-49
2023/06/15 09:46:13;;;;;;;0.40;0.20;;;;;;;25.43;38.33;100394.69;5031057;28;20519;-48
2023/06/15 09:48:43;;;;;;;0.50;0.20;;;;;;;25.27;38.75;100393.31;5032046;28;20589;-48
2023/06/15 09:51:10;;;;;;;0.50;0.20;;;;;;;25.32;38.22;100390.19;5035097;28;20459;-48
2023/06/15 09:53:37;;;;;;;0.50;0.20;;;;;;;25.28;37.87;100386.03;5035248;28;20473;-48
2023/06/15 09:56:04;;;;;;;0.50;0.40;;;;;;;25.59;37.55;100393.16;5034699;28;20529;-48
2023/06/15 09:58:51;;;;;;;0.50;0.20;;;;;;;25.89;37.53;100384.13;5031184;28;20460;-48
2023/06/15 10:01:18;;;;;;;0.50;0.30;;;;;;;25.55;37.35;100389.00;5034741;28;20503;-48
2023/06/15 10:03:52;;;;;;;0.50;0.20;;;;;;;25.23;37.09;100389.16;5034567;28;20506;-48
2023/06/15 10:06:20;;;;;;;0.50;0.20;;;;;;;25.29;36.93;100383.16;5034611;28;20463;-48
2023/06/15 10:08:52;;;;;;;0.50;0.20;;;;;;;25.64;37.47;100376.44;5034860;28;20495;-48
2023/06/15 10:11:20;;;;;;;0.50;0.20;;;;;;;25.86;36.39;100378.09;5034619;28;20494;-47
2023/06/15 10:13:52;;;;;;;0.50;0.20;;;;;;;25.68;35.26;100384.22;5034944;28;20499;-48
2023/06/15 10:16:20;;;;;;;0.50;0.20;;;;;;;25.30;34.81;100390.31;5034474;28;20986;-47
2023/06/15 10:18:53;;;;;;;0.50;0.30;;;;;;;25.73;36.02;100378.34;5034592;28;21041;-48
2023/06/15 10:21:27;;;;;;;0.50;0.30;;;;;;;26.00;36.07;100380.41;5034337;28;20491;-49
2023/06/15 10:24:00;;;;;;;0.50;0.30;;;;;;;26.10;35.84;100384.03;5034583;28;20536;-48
2023/06/15 10:26:27;;;;;;;0.50;0.20;;;;;;;26.16;34.76;100382.59;5027230;28;20509;-48
2023/06/15 10:29:00;;;;;;;0.50;0.20;;;;;;;26.10;35.41;100388.63;5034368;28;20815;-48
2023/06/15 10:31:35;;;;;;;0.50;0.40;;;;;;;26.02;35.80;100380.28;5034386;28;20546;-47
2023/06/15 10:34:14;;;;;;;0.50;0.20;;;;;;;25.88;34.84;100390.56;5034311;28;20459;-47
2023/06/15 10:36:54;;;;;;;0.50;0.20;;;;;;;26.10;34.94;100370.41;5034462;28;20463;-49
2023/06/15 10:39:27;;;;;;;0.50;0.30;;;;;;;25.73;35.66;100381.06;5034082;28;20459;-50
2023/06/15 10:41:57;;;;;;;0.50;0.20;;;;;;;25.78;33.99;100378.81;5027420;28;20524;-50
2023/06/15 10:44:33;;;;;;;0.50;0.20;;;;;;;25.89;33.67;100369.63;5030769;28;21020;-49
2023/06/15 10:47:06;;;;;;;0.50;0.20;;;;;;;26.08;34.75;100374.28;5034155;28;20875;-50
2023/06/15 10:49:33;;;;;;;0.50;0.23;;;;;;;26.07;36.05;100373.41;5034117;28;20467;-49
2023/06/15 10:52:02;;;;;;;0.50;0.23;;;;;;;25.96;35.73;100365.38;5033687;28;20499;-50
2023/06/15 10:54:28;;;;;;;0.50;0.20;;;;;;;26.14;35.04;100363.66;5034171;28;20480;-49
2023/06/15 10:56:57;;;;;;;0.50;0.20;;;;;;;26.06;36.11;100374.41;5034388;28;20456;-50
2023/06/15 10:59:37;;;;;;;0.50;0.20;;;;;;;25.94;35.28;100365.50;5025900;28;20550;-50
2023/06/15 11:02:27;;;;;;;0.50;0.20;;;;;;;25.94;35.77;100367.38;5034000;28;20851;-49
2023/06/15 11:05:10;;;;;;;0.50;0.30;;;;;;;26.06;35.85;100368.97;5022004;28;20855;-50
2023/06/15 11:07:43;;;;;;;0.50;0.30;;;;;;;26.01;35.46;100360.34;5033927;28;20470;-50
2023/06/15 11:10:19;;;;;;;0.50;0.30;;;;;;;26.28;36.07;100376.88;5041081;28;20960;-50
2023/06/15 11:12:50;;;;;;;0.50;0.40;;;;;;;25.94;36.90;100378.25;5033506;28;20491;-50
2023/06/15 11:15:17;;;;;;;0.50;0.30;;;;;;;25.58;36.90;100377.84;5033564;28;21050;-49
2023/06/15 11:18:00;;;;;;;0.50;0.30;;;;;;;25.69;37.01;100366.00;5033470;28;20525;-49
2023/06/15 11:20:43;;;;;;;0.50;0.20;;;;;;;26.69;35.66;100363.09;5033277;28;20502;-50
2023/06/15 11:23:16;;;;;;;0.50;0.30;;;;;;;26.97;35.00;100356.72;5023844;28;20478;-50
2023/06/15 11:25:44;;;;;;;0.50;0.30;;;;;;;26.44;35.18;100376.31;5033348;28;20541;-50
2023/06/15 11:28:15;;;;;;;0.50;0.20;;;;;;;26.49;35.75;100359.56;5030511;28;20542;-50
2023/06/15 11:31:05;;;;;;;0.50;0.20;;;;;;;26.71;35.72;100355.63;5034613;28;20451;-50